Valley Grande, Alabama
Current Conditions -  °F | °C
As of 2:15 AM on Sunday 26 Oct 2014 (Local Time) from KSEM Reporting Station
Haze Haze  
Wind Chill: 54°   Ceiling: NA
Heat Index: 54°   Visibility: 6mi
Dew Point: 52°   Wind: 0mph
Humidity: 94%   Direction: NA
Pressure: 30.03"   Gusts: NA
Location:  32.4554°N, 86.9821°W
Report Text: KSEM 260715Z AUTO 00000KT 6SM BR 12/11 A3003 RMK AO2
Loading
Personal Weather Stations






























Interactive Weather Map
Tropical Storm Tracking
New forecast layout! Learn more

10-Day Weather Forecast

Advertisements
Track Severe Weather on mobile